createdAt,value
2024-01-25T00:01:45.983Z,85.54
2024-01-25T00:11:46.076Z,85.85
2024-01-25T00:21:46.523Z,85.64
2024-01-25T00:31:46.437Z,85.74
2024-01-25T00:41:46.691Z,85.95
2024-01-25T00:51:47.233Z,86.81
2024-01-25T01:01:47.011Z,87.22
2024-01-25T01:11:47.206Z,87.32
2024-01-25T01:21:47.566Z,88.04
2024-01-25T01:31:47.464Z,88.14
2024-01-25T01:41:48.032Z,91.78
2024-01-25T01:51:47.673Z,97.25
2024-01-25T02:01:48.141Z,96.48
2024-01-25T02:11:48.242Z,94.95
2024-01-25T02:21:48.339Z,94.54
2024-01-25T02:31:48.501Z,94.23
2024-01-25T02:41:48.481Z,93.77
2024-01-25T02:51:48.695Z,94.43
2024-01-25T03:01:49.083Z,94.64
2024-01-25T03:11:48.986Z,95.05
2024-01-25T03:21:49.331Z,95.21
2024-01-25T03:31:49.306Z,95.77
2024-01-25T03:41:49.547Z,95.15
2024-01-25T03:51:49.846Z,94.64
2024-01-25T04:01:50.131Z,95.25
2024-01-25T04:11:50.049Z,95.56
2024-01-25T04:21:50.416Z,94.29
2024-01-25T04:31:50.598Z,94.84
2024-01-25T04:41:50.595Z,94.64
2024-01-25T04:51:50.650Z,95.50
2024-01-25T05:01:50.948Z,96.12
2024-01-25T05:11:51.106Z,96.64
2024-01-25T05:21:51.444Z,97.05
2024-01-25T05:31:51.240Z,96.58
2024-01-25T05:41:51.654Z,95.96
2024-01-25T05:51:51.684Z,95.18
2024-01-25T06:01:51.994Z,96.50
2024-01-25T06:11:52.153Z,95.52
2024-01-25T06:21:52.224Z,95.67
2024-01-25T06:31:52.597Z,96.33
2024-01-25T06:41:52.381Z,97.09
2024-01-25T06:51:52.681Z,97.20
2024-01-25T07:01:53.156Z,97.61
2024-01-25T07:11:53.224Z,97.97
2024-01-25T07:21:53.147Z,98.75
2024-01-25T07:31:53.466Z,98.96
2024-01-25T07:41:53.759Z,99.31
2024-01-25T07:51:53.732Z,99.10
2024-01-25T08:01:54.294Z,98.38
2024-01-25T08:11:54.262Z,97.82
2024-01-25T08:21:54.315Z,98.38
2024-01-25T08:31:54.512Z,97.36
2024-01-25T08:41:54.513Z,97.77
2024-01-25T08:51:54.767Z,95.10
2024-01-25T09:01:55.397Z,93.48
2024-01-25T09:11:55.020Z,92.50
2024-01-25T09:21:55.402Z,91.39
2024-01-25T09:31:55.276Z,90.53
2024-01-25T09:41:55.550Z,88.95
2024-01-25T09:51:55.823Z,84.86
2024-01-25T10:01:55.964Z,82.08
2024-01-25T10:12:10.219Z,79.17
2024-01-25T10:21:57.436Z,77.32
2024-01-25T10:31:56.356Z,76.23
2024-01-25T10:41:56.245Z,77.97
2024-01-25T10:51:56.638Z,72.28
2024-01-25T11:01:57.950Z,73.54
2024-01-25T11:11:56.805Z,75.04
2024-01-25T11:21:56.988Z,69.32
2024-01-25T11:31:57.068Z,67.59
2024-01-25T11:41:57.308Z,66.61
2024-01-25T11:51:57.503Z,66.94
2024-01-25T12:01:57.821Z,72.04
2024-01-25T12:11:57.775Z,71.15
2024-01-25T12:21:58.222Z,72.65
2024-01-25T12:31:58.095Z,70.54
2024-01-25T12:41:58.331Z,68.54
2024-01-25T12:51:58.804Z,67.18
2024-01-25T13:01:58.666Z,66.77
2024-01-25T13:11:58.934Z,67.41
2024-01-25T13:21:59.071Z,69.11
2024-01-25T13:31:59.526Z,70.71
2024-01-25T13:41:59.468Z,71.80
2024-01-25T13:51:59.439Z,67.65
2024-01-25T14:01:59.794Z,67.93
2024-01-25T14:11:59.660Z,69.18
2024-01-25T14:22:09.347Z,70.85
2024-01-25T14:32:01.193Z,72.11
2024-01-25T14:42:00.557Z,73.03
2024-01-25T14:52:00.709Z,76.09
2024-01-25T15:02:00.835Z,76.43
2024-01-25T15:12:00.766Z,77.60
2024-01-25T15:22:01.138Z,77.64
2024-01-25T15:32:01.331Z,79.62
2024-01-25T15:42:01.294Z,80.85
2024-01-25T15:52:01.617Z,83.07
2024-01-25T16:02:01.827Z,85.00
2024-01-25T16:12:01.770Z,87.90
2024-01-25T16:22:02.103Z,86.32
2024-01-25T16:32:02.050Z,87.69
2024-01-25T16:42:02.319Z,86.21
2024-01-25T16:52:03.525Z,85.41
2024-01-25T17:02:02.691Z,83.49
2024-01-25T17:12:02.821Z,84.10
2024-01-25T17:22:03.074Z,87.37
2024-01-25T17:32:03.101Z,87.43
2024-01-25T17:42:03.704Z,87.08
2024-01-25T17:52:03.372Z,88.76
2024-01-25T18:02:03.363Z,89.58
2024-01-25T18:12:03.671Z,90.40
2024-01-25T18:22:04.010Z,93.32
2024-01-25T18:32:04.766Z,96.60
2024-01-25T18:42:04.135Z,97.99
2024-01-25T18:52:04.379Z,98.91
2024-01-25T19:02:04.397Z,99.98
2024-01-25T19:12:04.634Z,99.99
2024-01-25T19:22:04.988Z,99.99
2024-01-25T19:32:04.876Z,99.99
2024-01-25T19:42:05.182Z,99.99
2024-01-25T19:52:05.201Z,99.99
2024-01-25T20:02:05.536Z,99.99
2024-01-25T20:12:05.680Z,99.99
2024-01-25T20:22:05.781Z,99.99
2024-01-25T20:32:05.931Z,99.99
2024-01-25T20:42:06.237Z,99.99
2024-01-25T20:52:06.202Z,99.99
2024-01-25T21:02:06.554Z,99.99
2024-01-25T21:12:06.743Z,99.99
2024-01-25T21:22:06.804Z,99.99
2024-01-25T21:32:06.998Z,99.99
2024-01-25T21:42:07.286Z,99.99
2024-01-25T21:52:07.298Z,99.99
2024-01-25T22:02:07.651Z,99.99
2024-01-25T22:12:07.494Z,99.99
2024-01-25T22:22:07.833Z,99.99
2024-01-25T22:32:07.744Z,99.99
2024-01-25T22:42:08.030Z,99.99
2024-01-25T22:52:07.971Z,99.99
2024-01-25T23:02:08.293Z,99.99
2024-01-25T23:12:08.540Z,99.99
2024-01-25T23:22:09.150Z,99.99
2024-01-25T23:32:08.806Z,99.99
2024-01-25T23:42:09.084Z,99.99
2024-01-25T23:52:09.336Z,99.08
